createdAt,value
2022-10-09T00:02:16.801Z,6.57
2022-10-09T00:04:43.436Z,6.60
2022-10-09T00:07:10.160Z,6.43
2022-10-09T00:09:36.701Z,6.35
2022-10-09T00:12:03.394Z,6.43
2022-10-09T00:14:30.011Z,6.85
2022-10-09T00:16:56.607Z,6.78
2022-10-09T00:19:23.234Z,6.80
2022-10-09T00:21:49.865Z,6.70
2022-10-09T00:24:16.489Z,7.20
2022-10-09T00:26:43.131Z,7.15
2022-10-09T00:29:09.875Z,7.37
2022-10-09T00:31:36.510Z,6.70
2022-10-09T00:34:03.167Z,6.47
2022-10-09T00:36:29.717Z,7.20
2022-10-09T00:38:56.294Z,6.93
2022-10-09T00:41:25.930Z,7.10
2022-10-09T00:43:57.279Z,6.87
2022-10-09T00:46:42.645Z,6.62
2022-10-09T00:49:20.966Z,7.30
2022-10-09T00:51:47.814Z,6.25
2022-10-09T00:54:15.441Z,6.95
2022-10-09T00:56:42.136Z,7.03
2022-10-09T00:59:08.729Z,6.87
2022-10-09T01:01:35.444Z,7.10
2022-10-09T01:04:02.132Z,7.40
2022-10-09T01:06:43.941Z,6.93
2022-10-09T01:09:20.192Z,6.47
2022-10-09T01:12:02.747Z,6.97
2022-10-09T01:14:39.720Z,7.25
2022-10-09T01:17:20.494Z,6.97
2022-10-09T01:20:17.230Z,7.20
2022-10-09T01:25:27.139Z,6.50
2022-10-09T01:27:53.728Z,7.07
2022-10-09T01:30:20.379Z,7.50
2022-10-09T01:32:48.879Z,7.03
2022-10-09T01:35:15.636Z,7.15
2022-10-09T01:37:43.129Z,7.32
2022-10-09T01:40:10.413Z,6.62
2022-10-09T01:42:37.119Z,6.47
2022-10-09T01:45:03.852Z,6.57
2022-10-09T01:47:30.684Z,6.78
2022-10-09T01:50:22.834Z,6.75
2022-10-09T01:52:55.266Z,6.95
2022-10-09T01:55:27.909Z,7.30
2022-10-09T01:57:59.700Z,6.15
2022-10-09T02:00:26.484Z,7.07
2022-10-09T02:02:53.560Z,7.05
2022-10-09T02:05:22.631Z,6.65
2022-10-09T02:07:49.441Z,6.60
2022-10-09T02:10:17.008Z,6.90
2022-10-09T02:12:47.246Z,6.70
2022-10-09T02:15:14.007Z,6.40
2022-10-09T02:17:43.995Z,6.70
2022-10-09T02:20:14.633Z,6.40
2022-10-09T02:22:41.607Z,6.87
2022-10-09T02:25:08.237Z,6.68
2022-10-09T02:27:34.847Z,7.10
2022-10-09T02:30:01.518Z,6.55
2022-10-09T02:32:28.699Z,6.70
2022-10-09T02:34:55.248Z,6.93
2022-10-09T02:37:22.033Z,6.62
2022-10-09T02:39:49.077Z,7.00
2022-10-09T02:42:15.619Z,7.18
2022-10-09T02:44:42.498Z,6.65
2022-10-09T02:47:09.207Z,6.07
2022-10-09T02:49:35.778Z,6.68
2022-10-09T02:52:02.351Z,6.60
2022-10-09T02:54:28.907Z,6.82
2022-10-09T02:56:55.426Z,6.82
2022-10-09T02:59:21.988Z,7.07
2022-10-09T03:01:50.023Z,6.97
2022-10-09T03:04:16.775Z,6.60
2022-10-09T03:06:43.397Z,7.25
2022-10-09T03:09:09.967Z,5.82
2022-10-09T03:11:36.567Z,6.50
2022-10-09T03:14:03.101Z,6.78
2022-10-09T03:16:29.743Z,6.70
2022-10-09T03:18:56.492Z,5.90
2022-10-09T03:21:24.723Z,7.35
2022-10-09T03:23:51.843Z,6.10
2022-10-09T03:26:20.078Z,6.22
2022-10-09T03:28:47.958Z,7.43
2022-10-09T03:31:27.663Z,6.75
2022-10-09T03:34:02.147Z,6.55
2022-10-09T03:36:28.754Z,6.70
2022-10-09T03:38:55.319Z,7.03
2022-10-09T03:41:21.938Z,7.32
2022-10-09T03:43:48.480Z,7.10
2022-10-09T03:46:15.138Z,6.45
2022-10-09T03:48:41.696Z,6.75
2022-10-09T03:51:08.268Z,6.70
2022-10-09T03:53:35.103Z,6.32
2022-10-09T03:56:01.722Z,6.95
2022-10-09T03:58:28.323Z,6.18
2022-10-09T04:00:55.069Z,5.75
2022-10-09T04:03:24.286Z,5.72
2022-10-09T04:05:50.850Z,6.68
2022-10-09T04:08:17.417Z,6.25
2022-10-09T04:10:43.948Z,6.53
2022-10-09T04:13:10.740Z,5.93
2022-10-09T04:15:37.636Z,6.28
2022-10-09T04:18:04.400Z,5.90
2022-10-09T04:20:34.114Z,6.18
2022-10-09T04:23:00.816Z,6.10
2022-10-09T04:25:27.641Z,5.85
2022-10-09T04:27:54.303Z,5.85
2022-10-09T04:30:20.895Z,6.05
2022-10-09T04:32:48.390Z,6.10
2022-10-09T04:35:16.612Z,6.30
2022-10-09T04:37:43.163Z,5.45
2022-10-09T04:40:09.904Z,6.47
2022-10-09T04:42:36.533Z,6.05
2022-10-09T04:45:03.380Z,6.37
2022-10-09T04:47:32.961Z,5.47
2022-10-09T04:49:59.566Z,5.97
2022-10-09T04:52:26.185Z,5.80
2022-10-09T04:54:52.749Z,5.32
2022-10-09T04:57:19.300Z,6.00
2022-10-09T04:59:46.024Z,6.00
2022-10-09T05:02:12.580Z,6.03
2022-10-09T05:04:39.579Z,6.30
2022-10-09T05:07:06.154Z,5.70
2022-10-09T05:09:32.768Z,5.70
2022-10-09T05:11:59.335Z,6.37
2022-10-09T05:14:25.910Z,6.03
2022-10-09T05:17:12.638Z,5.37
2022-10-09T05:19:39.453Z,5.85
2022-10-09T05:22:06.025Z,6.18
2022-10-09T05:24:32.771Z,5.47
2022-10-09T05:26:59.435Z,5.97
2022-10-09T05:29:26.061Z,6.15
2022-10-09T05:31:52.768Z,5.90
2022-10-09T05:34:21.439Z,5.95
2022-10-09T05:36:48.147Z,5.90
2022-10-09T05:39:16.211Z,6.57
2022-10-09T05:41:42.768Z,6.25
2022-10-09T05:44:12.113Z,6.45
2022-10-09T05:46:38.722Z,6.75
2022-10-09T05:49:05.628Z,5.80
2022-10-09T05:51:36.730Z,6.22
2022-10-09T05:54:03.818Z,5.85
2022-10-09T05:56:37.758Z,5.37
2022-10-09T05:59:05.737Z,5.55
2022-10-09T06:01:34.064Z,5.78
2022-10-09T06:04:00.828Z,5.62
2022-10-09T06:06:32.040Z,5.97
2022-10-09T06:08:58.861Z,5.80
2022-10-09T06:11:31.598Z,5.57
2022-10-09T06:13:58.922Z,5.53
2022-10-09T06:16:26.887Z,5.90
2022-10-09T06:18:53.797Z,5.82
2022-10-09T06:21:20.397Z,5.95
2022-10-09T06:23:51.386Z,6.30
2022-10-09T06:26:18.311Z,5.80
2022-10-09T06:28:45.172Z,6.00
2022-10-09T06:31:22.249Z,5.75
2022-10-09T06:33:49.547Z,5.97
2022-10-09T06:36:20.767Z,6.25
2022-10-09T06:38:47.705Z,5.95
2022-10-09T06:41:18.760Z,5.78
2022-10-09T06:43:56.152Z,5.90
2022-10-09T06:46:24.535Z,6.55
2022-10-09T06:48:51.157Z,6.22
2022-10-09T06:51:19.017Z,5.68
2022-10-09T06:53:52.826Z,6.15
2022-10-09T06:56:20.109Z,5.40
2022-10-09T06:58:46.669Z,6.57
2022-10-09T07:01:14.030Z,5.93
2022-10-09T07:03:43.673Z,5.72
2022-10-09T07:06:10.183Z,5.85
2022-10-09T07:08:37.307Z,5.68
2022-10-09T07:11:16.584Z,4.97
2022-10-09T07:13:44.426Z,6.03
2022-10-09T07:16:11.512Z,5.28
2022-10-09T07:18:41.271Z,5.60
2022-10-09T07:21:08.589Z,5.80
2022-10-09T07:23:35.511Z,5.62
2022-10-09T07:26:02.845Z,5.32
2022-10-09T07:28:30.027Z,5.72
2022-10-09T07:30:56.860Z,5.32
2022-10-09T07:33:23.506Z,5.15
2022-10-09T07:35:56.735Z,5.78
2022-10-09T07:38:24.496Z,5.93
2022-10-09T07:40:52.216Z,5.85
2022-10-09T07:43:18.909Z,5.78
2022-10-09T07:45:45.455Z,4.50
2022-10-09T07:48:12.501Z,5.85
2022-10-09T07:50:39.049Z,5.40
2022-10-09T07:53:05.660Z,5.10
2022-10-09T07:55:32.212Z,5.10
2022-10-09T07:57:58.814Z,5.05
2022-10-09T08:00:25.459Z,5.32
2022-10-09T08:02:52.489Z,5.37
2022-10-09T08:05:19.468Z,5.55
2022-10-09T08:07:46.011Z,5.30
2022-10-09T08:10:12.824Z,4.78
2022-10-09T08:12:39.370Z,5.53
2022-10-09T08:15:06.711Z,5.28
2022-10-09T08:17:33.506Z,5.03
2022-10-09T08:20:02.610Z,5.37
2022-10-09T08:22:29.401Z,5.12
2022-10-09T08:24:56.016Z,5.32
2022-10-09T08:27:22.639Z,4.95
2022-10-09T08:29:49.223Z,5.32
2022-10-09T08:32:15.803Z,4.80
2022-10-09T08:34:42.531Z,5.65
2022-10-09T08:37:09.102Z,4.62
2022-10-09T08:39:35.708Z,5.22
2022-10-09T08:42:03.321Z,5.57
2022-10-09T08:44:45.478Z,5.32
2022-10-09T08:47:29.009Z,5.07
2022-10-09T08:50:24.357Z,4.72
2022-10-09T08:53:01.789Z,4.78
2022-10-09T08:55:29.543Z,4.55
2022-10-09T08:57:57.389Z,4.80
2022-10-09T09:00:29.293Z,5.00
2022-10-09T09:03:20.548Z,5.18
2022-10-09T09:06:12.344Z,4.80
2022-10-09T09:09:14.592Z,5.00
2022-10-09T09:11:55.000Z,5.22
2022-10-09T09:14:47.748Z,4.87
2022-10-09T09:17:22.188Z,4.93
2022-10-09T09:20:14.591Z,4.55
2022-10-09T09:22:42.683Z,4.87
2022-10-09T09:25:20.931Z,4.50
2022-10-09T09:27:47.733Z,4.85
2022-10-09T09:30:24.626Z,4.75
2022-10-09T09:33:05.916Z,4.22
2022-10-09T09:35:47.018Z,4.60
2022-10-09T09:38:14.416Z,4.20
2022-10-09T09:40:45.861Z,4.78
2022-10-09T09:43:23.514Z,4.45
2022-10-09T09:45:54.056Z,4.57
2022-10-09T09:48:39.293Z,4.47
2022-10-09T09:51:32.584Z,4.57
2022-10-09T09:54:00.906Z,4.70
2022-10-09T09:56:53.370Z,4.53
2022-10-09T09:59:30.155Z,4.47
2022-10-09T10:02:01.455Z,4.40
2022-10-09T10:04:28.443Z,4.18
2022-10-09T10:06:55.138Z,4.45
2022-10-09T10:09:21.766Z,4.43
2022-10-09T10:11:57.946Z,4.28
2022-10-09T10:14:24.755Z,4.40
2022-10-09T10:16:52.549Z,4.20
2022-10-09T10:19:27.128Z,4.50
2022-10-09T10:22:03.230Z,4.25
2022-10-09T10:24:43.729Z,4.68
2022-10-09T10:27:22.793Z,4.22
2022-10-09T10:29:49.807Z,4.07
2022-10-09T10:32:22.145Z,4.40
2022-10-09T10:34:57.811Z,4.28
2022-10-09T10:40:35.119Z,3.92
2022-10-09T10:43:11.013Z,4.22
2022-10-09T10:45:57.027Z,4.05
2022-10-09T10:48:32.434Z,4.18
2022-10-09T10:51:09.131Z,4.00
2022-10-09T10:53:46.442Z,4.22
2022-10-09T10:56:23.697Z,4.65
2022-10-09T10:58:58.954Z,4.25
2022-10-09T11:01:25.660Z,3.83
2022-10-09T11:04:10.004Z,4.30
2022-10-09T11:07:08.915Z,4.30
2022-10-09T11:09:35.320Z,4.05
2022-10-09T11:12:43.232Z,3.72
2022-10-09T11:15:19.603Z,4.57
2022-10-09T11:18:40.830Z,4.55
2022-10-09T11:21:28.676Z,4.47
2022-10-09T11:24:24.110Z,4.12
2022-10-09T11:27:03.385Z,4.18
2022-10-09T11:29:38.448Z,4.20
2022-10-09T11:32:17.689Z,3.95
2022-10-09T11:34:58.121Z,3.97
2022-10-09T11:37:27.766Z,3.78
2022-10-09T11:39:55.026Z,4.18
2022-10-09T11:42:23.578Z,4.05
2022-10-09T11:44:53.431Z,3.92
2022-10-09T11:47:38.847Z,3.90
2022-10-09T11:50:28.746Z,4.03
2022-10-09T11:52:59.955Z,4.07
2022-10-09T11:55:28.732Z,4.25
2022-10-09T11:57:55.371Z,4.30
2022-10-09T12:00:32.569Z,4.15
2022-10-09T12:03:03.779Z,4.05
2022-10-09T12:05:45.085Z,4.37
2022-10-09T12:08:19.408Z,3.90
2022-10-09T12:10:57.896Z,3.75
2022-10-09T12:13:31.367Z,3.92
2022-10-09T12:15:58.715Z,4.25
2022-10-09T12:18:28.010Z,4.30
2022-10-09T12:20:54.711Z,4.22
2022-10-09T12:23:27.212Z,4.28
2022-10-09T12:25:54.379Z,4.40
2022-10-09T12:28:31.566Z,4.25
2022-10-09T12:30:59.827Z,4.20
2022-10-09T12:33:34.599Z,4.20
2022-10-09T12:36:06.895Z,4.00
2022-10-09T12:38:33.472Z,4.30
2022-10-09T12:41:03.271Z,4.18
2022-10-09T12:43:30.049Z,4.55
2022-10-09T12:45:56.654Z,4.30
2022-10-09T12:48:25.856Z,4.10
2022-10-09T12:50:52.945Z,4.35
2022-10-09T12:53:24.474Z,4.18
2022-10-09T12:56:00.671Z,4.20
2022-10-09T12:58:32.381Z,4.12
2022-10-09T13:01:03.974Z,3.80
2022-10-09T13:03:43.817Z,3.70
2022-10-09T13:06:15.351Z,4.37
2022-10-09T13:08:41.937Z,4.30
2022-10-09T13:11:25.427Z,4.15
2022-10-09T13:13:52.455Z,4.10
2022-10-09T13:16:19.759Z,4.25
2022-10-09T13:18:59.658Z,4.45
2022-10-09T13:21:35.064Z,4.10
2022-10-09T13:24:13.622Z,4.80
2022-10-09T13:26:42.327Z,4.50
2022-10-09T13:29:08.898Z,4.28
2022-10-09T13:31:37.035Z,5.03
2022-10-09T13:34:11.315Z,4.45
2022-10-09T13:36:37.857Z,4.75
2022-10-09T13:39:04.696Z,4.12
2022-10-09T13:41:31.267Z,4.60
2022-10-09T13:43:57.845Z,4.18
2022-10-09T13:46:24.560Z,4.07
2022-10-09T13:48:51.161Z,4.37
2022-10-09T13:51:17.798Z,4.37
2022-10-09T13:53:44.416Z,3.92
2022-10-09T13:56:11.067Z,4.20
2022-10-09T13:58:37.620Z,4.43
2022-10-09T14:01:06.595Z,4.32
2022-10-09T14:03:33.334Z,4.53
2022-10-09T14:06:00.975Z,4.55
2022-10-09T14:08:27.619Z,4.40
2022-10-09T14:10:54.459Z,4.45
2022-10-09T14:13:21.803Z,4.85
2022-10-09T14:15:48.363Z,4.62
2022-10-09T14:18:14.930Z,4.03
2022-10-09T14:20:41.518Z,4.30
2022-10-09T14:23:13.556Z,4.22
2022-10-09T14:25:40.540Z,4.95
2022-10-09T14:28:07.332Z,4.93
2022-10-09T14:30:33.959Z,4.78
2022-10-09T14:33:00.577Z,4.97
2022-10-09T14:35:27.123Z,4.45
2022-10-09T14:37:53.668Z,4.18
2022-10-09T14:40:20.253Z,4.62
2022-10-09T14:42:47.037Z,5.10
2022-10-09T14:45:13.687Z,4.70
2022-10-09T14:47:40.351Z,4.53
2022-10-09T14:50:07.309Z,4.78
2022-10-09T14:52:35.203Z,4.57
2022-10-09T14:55:01.764Z,4.97
2022-10-09T14:57:31.627Z,4.22
2022-10-09T15:00:02.091Z,4.53
2022-10-09T15:02:28.807Z,4.47
2022-10-09T15:04:55.417Z,4.28
2022-10-09T15:07:22.002Z,4.75
2022-10-09T15:09:48.554Z,4.50
2022-10-09T15:12:15.129Z,4.87
2022-10-09T15:14:41.707Z,4.72
2022-10-09T15:17:08.254Z,4.80
2022-10-09T15:19:34.846Z,4.30
2022-10-09T15:22:01.445Z,4.85
2022-10-09T15:24:28.142Z,4.07
2022-10-09T15:26:54.776Z,4.53
2022-10-09T15:29:21.374Z,4.15
2022-10-09T15:31:49.744Z,4.90
2022-10-09T15:34:17.962Z,4.35
2022-10-09T15:36:45.962Z,4.30
2022-10-09T15:39:15.660Z,4.65
2022-10-09T15:41:43.261Z,4.30
2022-10-09T15:44:17.819Z,4.22
2022-10-09T15:46:44.693Z,4.47
2022-10-09T15:49:11.393Z,4.45
2022-10-09T15:51:38.168Z,5.03
2022-10-09T15:54:05.426Z,4.68
2022-10-09T15:56:36.071Z,4.40
2022-10-09T15:59:06.182Z,4.07
2022-10-09T16:01:32.885Z,4.75
2022-10-09T16:03:59.498Z,4.32
2022-10-09T16:06:26.059Z,4.25
2022-10-09T16:08:55.537Z,4.37
2022-10-09T16:11:25.143Z,4.47
2022-10-09T16:13:53.713Z,4.37
2022-10-09T16:16:22.112Z,4.65
2022-10-09T16:18:48.705Z,4.10
2022-10-09T16:21:17.303Z,4.25
2022-10-09T16:23:44.070Z,4.00
2022-10-09T16:26:10.923Z,3.90
2022-10-09T16:28:37.743Z,4.40
2022-10-09T16:31:04.359Z,4.12
2022-10-09T16:33:30.970Z,4.40
2022-10-09T16:36:10.675Z,4.30
2022-10-09T16:38:38.052Z,4.15
2022-10-09T16:41:07.858Z,3.92
2022-10-09T16:43:34.456Z,3.92
2022-10-09T16:46:10.869Z,4.03
2022-10-09T16:48:37.649Z,4.03
2022-10-09T16:51:11.219Z,3.58
2022-10-09T16:53:37.892Z,4.30
2022-10-09T16:56:12.365Z,4.28
2022-10-09T16:58:39.926Z,3.95
2022-10-09T17:01:10.356Z,3.97
2022-10-09T17:03:40.294Z,3.70
2022-10-09T17:06:25.338Z,3.62
2022-10-09T17:08:52.779Z,3.70
2022-10-09T17:11:19.512Z,4.28
2022-10-09T17:13:46.318Z,3.72
2022-10-09T17:16:18.643Z,4.18
2022-10-09T17:18:46.183Z,4.07
2022-10-09T17:21:12.909Z,4.10
2022-10-09T17:23:39.472Z,3.60
2022-10-09T17:26:10.123Z,3.60
2022-10-09T17:28:36.837Z,3.72
2022-10-09T17:31:08.403Z,3.42
2022-10-09T17:33:39.227Z,3.65
2022-10-09T17:36:05.938Z,3.65
2022-10-09T17:38:32.478Z,3.62
2022-10-09T17:40:59.236Z,3.62
2022-10-09T17:43:25.786Z,3.40
2022-10-09T17:45:52.481Z,4.00
2022-10-09T17:48:19.061Z,4.35
2022-10-09T17:50:55.438Z,4.00
2022-10-09T17:53:25.076Z,4.00
2022-10-09T17:55:53.004Z,3.62
2022-10-09T17:58:19.868Z,3.75
2022-10-09T18:00:46.547Z,3.35
2022-10-09T18:03:13.431Z,3.70
2022-10-09T18:05:44.197Z,3.45
2022-10-09T18:08:11.232Z,3.53
2022-10-09T18:10:37.785Z,3.53
2022-10-09T18:13:05.195Z,3.33
2022-10-09T18:15:31.785Z,3.53
2022-10-09T18:17:58.326Z,3.37
2022-10-09T18:20:25.003Z,3.50
2022-10-09T18:22:51.583Z,3.42
2022-10-09T18:25:18.257Z,3.28
2022-10-09T18:27:44.837Z,3.28
2022-10-09T18:30:11.939Z,3.60
2022-10-09T18:32:38.520Z,3.72
2022-10-09T18:35:05.302Z,3.30
2022-10-09T18:37:31.852Z,3.47
2022-10-09T18:39:58.400Z,3.62
2022-10-09T18:42:25.044Z,3.33
2022-10-09T18:44:51.726Z,3.40
2022-10-09T18:47:18.659Z,3.67
2022-10-09T18:49:47.217Z,3.25
2022-10-09T18:52:13.871Z,3.10
2022-10-09T18:54:40.896Z,3.28
2022-10-09T18:57:07.577Z,3.53
2022-10-09T18:59:35.095Z,3.50
2022-10-09T19:02:01.734Z,3.62
2022-10-09T19:04:28.317Z,3.60
2022-10-09T19:06:55.102Z,3.30
2022-10-09T19:09:21.924Z,3.20
2022-10-09T19:11:48.509Z,3.90
2022-10-09T19:14:15.914Z,3.28
2022-10-09T19:16:42.615Z,3.53
2022-10-09T19:19:09.200Z,4.15
2022-10-09T19:21:37.858Z,3.42
2022-10-09T19:24:06.219Z,3.17
2022-10-09T19:26:33.142Z,3.55
2022-10-09T19:29:00.030Z,4.20
2022-10-09T19:31:26.618Z,3.20
2022-10-09T19:33:53.338Z,3.87
2022-10-09T19:36:19.915Z,3.75
2022-10-09T19:38:46.723Z,3.30
2022-10-09T19:41:14.693Z,3.47
2022-10-09T19:43:41.571Z,3.83
2022-10-09T19:46:09.982Z,2.80
2022-10-09T19:48:36.790Z,3.62
2022-10-09T19:51:07.366Z,3.45
2022-10-09T19:53:34.628Z,3.45
2022-10-09T19:56:02.844Z,3.08
2022-10-09T19:58:31.291Z,2.92
2022-10-09T20:00:57.880Z,4.03
2022-10-09T20:03:24.468Z,3.90
2022-10-09T20:05:51.054Z,3.12
2022-10-09T20:08:17.669Z,3.60
2022-10-09T20:10:44.231Z,2.92
2022-10-09T20:13:10.775Z,3.37
2022-10-09T20:15:41.516Z,3.30
2022-10-09T20:18:08.103Z,2.97
2022-10-09T20:20:35.528Z,3.10
2022-10-09T20:23:02.078Z,3.17
2022-10-09T20:25:28.765Z,3.30
2022-10-09T20:27:55.320Z,3.42
2022-10-09T20:30:21.882Z,3.40
2022-10-09T20:32:49.411Z,2.92
2022-10-09T20:35:16.287Z,3.00
2022-10-09T20:37:42.816Z,3.35
2022-10-09T20:40:09.699Z,3.35
2022-10-09T20:42:36.272Z,3.72
2022-10-09T20:45:02.870Z,3.05
2022-10-09T20:47:29.445Z,3.12
2022-10-09T20:49:56.003Z,2.70
2022-10-09T20:52:22.553Z,2.97
2022-10-09T20:54:49.193Z,3.05
2022-10-09T20:57:15.764Z,2.78
2022-10-09T20:59:42.436Z,2.80
2022-10-09T21:02:10.341Z,2.60
2022-10-09T21:04:36.926Z,3.33
2022-10-09T21:07:03.535Z,2.80
2022-10-09T21:09:33.266Z,3.00
2022-10-09T21:12:00.345Z,3.28
2022-10-09T21:14:26.898Z,2.50
2022-10-09T21:16:53.592Z,2.55
2022-10-09T21:19:20.123Z,2.78
2022-10-09T21:21:50.890Z,2.80
2022-10-09T21:24:18.052Z,2.83
2022-10-09T21:26:47.050Z,2.50
2022-10-09T21:29:14.047Z,2.60
2022-10-09T21:31:40.726Z,2.75
2022-10-09T21:34:07.471Z,2.30
2022-10-09T21:36:50.814Z,2.85
2022-10-09T21:39:25.660Z,2.50
2022-10-09T21:41:52.295Z,2.60
2022-10-09T21:44:19.109Z,2.67
2022-10-09T21:46:45.663Z,2.80
2022-10-09T21:49:27.221Z,2.70
2022-10-09T21:51:53.980Z,2.50
2022-10-09T21:54:20.792Z,2.75
2022-10-09T21:56:47.348Z,2.62
2022-10-09T21:59:14.011Z,2.42
2022-10-09T22:01:40.623Z,2.75
2022-10-09T22:04:07.223Z,2.47
2022-10-09T22:06:33.866Z,2.10
2022-10-09T22:09:00.438Z,2.22
2022-10-09T22:11:27.052Z,2.28
2022-10-09T22:13:55.221Z,2.40
2022-10-09T22:16:21.812Z,2.50
2022-10-09T22:18:48.381Z,2.33
2022-10-09T22:21:15.277Z,2.22
2022-10-09T22:23:42.018Z,2.58
2022-10-09T22:26:11.583Z,2.37
2022-10-09T22:28:38.171Z,2.00
2022-10-09T22:31:11.799Z,2.40
2022-10-09T22:33:38.348Z,2.12
2022-10-09T22:36:15.710Z,1.90
2022-10-09T22:38:42.618Z,2.20
2022-10-09T22:41:13.383Z,2.53
2022-10-09T22:43:40.057Z,2.05
2022-10-09T22:46:10.911Z,2.40
2022-10-09T22:48:37.847Z,2.15
2022-10-09T22:51:05.384Z,2.28
2022-10-09T22:53:32.201Z,2.17
2022-10-09T22:55:58.832Z,2.08
2022-10-09T22:58:25.493Z,2.50
2022-10-09T23:00:52.190Z,2.20
2022-10-09T23:03:18.825Z,2.10
2022-10-09T23:05:45.382Z,2.30
2022-10-09T23:08:12.204Z,1.92
2022-10-09T23:10:39.355Z,2.08
2022-10-09T23:13:06.152Z,2.05
2022-10-09T23:15:36.620Z,2.22
2022-10-09T23:18:04.390Z,2.15
2022-10-09T23:20:31.031Z,2.08
2022-10-09T23:22:57.661Z,2.22
2022-10-09T23:25:24.309Z,2.10
2022-10-09T23:27:50.979Z,2.00
2022-10-09T23:30:17.779Z,1.95
2022-10-09T23:32:44.343Z,1.90
2022-10-09T23:35:11.002Z,1.90
2022-10-09T23:37:37.575Z,2.22
2022-10-09T23:40:04.585Z,1.77
2022-10-09T23:42:31.128Z,2.03
2022-10-09T23:45:00.570Z,2.40
2022-10-09T23:47:27.105Z,1.75
2022-10-09T23:49:53.876Z,1.48
2022-10-09T23:52:20.460Z,2.00
2022-10-09T23:54:47.007Z,1.60
2022-10-09T23:57:13.595Z,1.90
2022-10-09T23:59:40.157Z,1.77
